createdAt,value
2023-03-16T00:00:20.154Z,3.35
2023-03-16T00:02:47.353Z,3.47
2023-03-16T00:05:14.912Z,3.78
2023-03-16T00:07:42.621Z,3.85
2023-03-16T00:10:12.524Z,3.75
2023-03-16T00:12:40.442Z,3.40
2023-03-16T00:15:08.204Z,3.90
2023-03-16T00:17:35.596Z,3.63
2023-03-16T00:20:06.253Z,3.35
2023-03-16T00:22:34.382Z,3.85
2023-03-16T00:25:02.041Z,3.60
2023-03-16T00:27:29.708Z,3.40
2023-03-16T00:29:57.379Z,3.40
2023-03-16T00:32:36.739Z,3.50
2023-03-16T00:35:07.437Z,3.78
2023-03-16T00:37:39.598Z,4.00
2023-03-16T00:40:09.087Z,3.60
2023-03-16T00:42:36.414Z,4.60
2023-03-16T00:45:05.901Z,3.90
2023-03-16T00:47:35.420Z,4.03
2023-03-16T00:50:03.597Z,4.03
2023-03-16T00:52:30.704Z,4.25
2023-03-16T00:54:59.236Z,4.30
2023-03-16T00:57:30.209Z,4.32
2023-03-16T00:59:57.960Z,4.60
2023-03-16T01:02:25.275Z,4.32
2023-03-16T01:04:54.555Z,4.47
2023-03-16T01:07:23.031Z,4.65
2023-03-16T01:09:51.503Z,4.50
2023-03-16T01:12:20.222Z,4.43
2023-03-16T01:14:48.273Z,5.30
2023-03-16T01:17:17.740Z,4.78
2023-03-16T01:19:46.118Z,4.93
2023-03-16T01:22:14.071Z,4.97
2023-03-16T01:24:42.667Z,4.97
2023-03-16T01:27:09.856Z,5.07
2023-03-16T01:29:37.787Z,5.05
2023-03-16T01:32:07.010Z,4.82
2023-03-16T01:34:34.874Z,4.88
2023-03-16T01:37:02.647Z,5.07
2023-03-16T01:39:45.117Z,5.07
2023-03-16T01:42:13.852Z,4.82
2023-03-16T01:45:02.247Z,4.78
2023-03-16T01:47:38.904Z,4.88
2023-03-16T01:50:11.203Z,4.55
2023-03-16T01:52:40.800Z,5.03
2023-03-16T01:55:13.734Z,5.00
2023-03-16T01:57:46.012Z,5.00
2023-03-16T02:00:19.759Z,5.13
2023-03-16T02:03:21.652Z,5.00
2023-03-16T02:06:19.572Z,4.57
2023-03-16T02:08:55.457Z,5.03
2023-03-16T02:11:24.200Z,4.85
2023-03-16T02:14:14.230Z,4.60
2023-03-16T02:16:42.774Z,4.85
2023-03-16T02:19:23.562Z,4.90
2023-03-16T02:22:17.977Z,4.50
2023-03-16T02:24:45.774Z,4.57
2023-03-16T02:27:29.422Z,4.45
2023-03-16T02:30:09.456Z,4.85
2023-03-16T02:32:46.216Z,4.60
2023-03-16T02:35:14.441Z,4.53
2023-03-16T02:37:42.366Z,4.50
2023-03-16T02:40:26.616Z,4.47
2023-03-16T02:43:07.040Z,4.70
2023-03-16T02:46:05.913Z,4.20
2023-03-16T02:49:02.952Z,4.50
2023-03-16T02:51:32.440Z,4.60
2023-03-16T02:53:59.843Z,4.20
2023-03-16T02:56:29.380Z,4.68
2023-03-16T02:58:57.923Z,4.72
2023-03-16T03:01:26.322Z,4.45
2023-03-16T03:03:55.201Z,4.20
2023-03-16T03:06:22.483Z,4.32
2023-03-16T03:08:49.898Z,4.40
2023-03-16T03:11:19.672Z,4.25
2023-03-16T03:13:47.737Z,4.22
2023-03-16T03:16:19.464Z,4.18
2023-03-16T03:18:47.700Z,4.18
2023-03-16T03:21:15.140Z,4.15
2023-03-16T03:23:42.473Z,4.20
2023-03-16T03:26:09.643Z,4.57
2023-03-16T03:28:36.855Z,4.00
2023-03-16T03:31:04.058Z,3.83
2023-03-16T03:33:33.675Z,4.50
2023-03-16T03:36:02.362Z,4.18
2023-03-16T03:38:34.722Z,4.32
2023-03-16T03:41:02.833Z,4.50
2023-03-16T03:43:34.955Z,4.40
2023-03-16T03:46:04.062Z,4.00
2023-03-16T03:48:34.123Z,4.15
2023-03-16T03:51:02.264Z,3.88
2023-03-16T03:53:47.267Z,4.50
2023-03-16T03:56:19.984Z,4.40
2023-03-16T03:58:47.318Z,3.97
2023-03-16T04:01:21.324Z,4.53
2023-03-16T04:03:48.905Z,3.88
2023-03-16T04:06:17.031Z,4.18
2023-03-16T04:08:44.549Z,4.40
2023-03-16T04:11:15.725Z,4.45
2023-03-16T04:13:43.228Z,4.43
2023-03-16T04:16:11.101Z,4.28
2023-03-16T04:18:45.215Z,4.32
2023-03-16T04:21:17.141Z,4.57
2023-03-16T04:23:48.085Z,4.53
2023-03-16T04:26:16.163Z,4.30
2023-03-16T04:28:45.534Z,4.47
2023-03-16T04:31:15.962Z,4.30
2023-03-16T04:33:46.072Z,4.57
2023-03-16T04:36:13.589Z,4.40
2023-03-16T04:38:42.124Z,4.88
2023-03-16T04:41:11.477Z,4.38
2023-03-16T04:43:45.660Z,4.75
2023-03-16T04:46:26.836Z,4.53
2023-03-16T04:48:58.357Z,4.88
2023-03-16T04:51:27.904Z,4.90
2023-03-16T04:54:08.422Z,4.65
2023-03-16T04:56:41.617Z,5.20
2023-03-16T04:59:28.258Z,4.90
2023-03-16T05:02:09.015Z,4.90
2023-03-16T05:04:37.501Z,5.05
2023-03-16T05:07:05.480Z,4.82
2023-03-16T05:09:37.539Z,4.60
2023-03-16T05:12:05.409Z,5.63
2023-03-16T05:14:32.996Z,5.20
2023-03-16T05:17:15.280Z,4.80
2023-03-16T05:19:45.055Z,4.88
2023-03-16T05:22:13.202Z,4.95
2023-03-16T05:24:52.383Z,5.20
2023-03-16T05:27:20.523Z,4.97
2023-03-16T05:29:48.217Z,4.75
2023-03-16T05:32:17.287Z,5.00
2023-03-16T05:34:45.623Z,4.95
2023-03-16T05:37:13.451Z,4.75
2023-03-16T05:39:41.118Z,4.80
2023-03-16T05:42:08.597Z,4.90
2023-03-16T05:44:48.463Z,4.90
2023-03-16T05:47:32.490Z,4.78
2023-03-16T05:49:59.704Z,4.82
2023-03-16T05:52:33.934Z,4.40
2023-03-16T05:55:09.658Z,4.85
2023-03-16T05:57:37.644Z,4.68
2023-03-16T06:00:14.554Z,5.07
2023-03-16T06:02:51.419Z,4.68
2023-03-16T06:05:25.272Z,4.78
2023-03-16T06:07:53.502Z,5.40
2023-03-16T06:10:21.467Z,4.90
2023-03-16T06:12:48.766Z,4.50
2023-03-16T06:15:16.211Z,4.43
2023-03-16T06:17:43.299Z,4.50
2023-03-16T06:20:13.446Z,4.85
2023-03-16T06:22:43.984Z,4.88
2023-03-16T06:25:14.291Z,4.32
2023-03-16T06:27:43.704Z,5.00
2023-03-16T06:30:16.083Z,4.85
2023-03-16T06:32:45.743Z,4.40
2023-03-16T06:35:14.161Z,4.40
2023-03-16T06:37:47.239Z,4.80
2023-03-16T06:40:35.547Z,4.93
2023-03-16T06:43:02.803Z,4.45
2023-03-16T06:45:30.283Z,4.97
2023-03-16T06:47:57.540Z,4.70
2023-03-16T06:50:24.977Z,4.60
2023-03-16T06:52:52.179Z,4.53
2023-03-16T06:55:19.793Z,4.30
2023-03-16T06:57:48.065Z,4.65
2023-03-16T07:00:15.927Z,4.45
2023-03-16T07:02:43.927Z,4.43
2023-03-16T07:05:15.854Z,4.38
2023-03-16T07:07:45.372Z,4.68
2023-03-16T07:10:17.403Z,4.00
2023-03-16T07:12:45.620Z,4.38
2023-03-16T07:15:14.120Z,5.00
2023-03-16T07:17:42.665Z,4.38
2023-03-16T07:20:12.909Z,4.57
2023-03-16T07:22:41.847Z,4.50
2023-03-16T07:25:12.065Z,4.25
2023-03-16T07:27:45.571Z,4.32
2023-03-16T07:30:15.177Z,4.47
2023-03-16T07:32:45.749Z,4.10
2023-03-16T07:35:13.126Z,4.50
2023-03-16T07:37:40.325Z,4.32
2023-03-16T07:40:11.668Z,4.70
2023-03-16T07:42:39.088Z,4.22
2023-03-16T07:45:20.000Z,4.40
2023-03-16T07:47:47.905Z,4.57
2023-03-16T07:50:35.066Z,4.50
2023-03-16T07:53:02.472Z,4.50
2023-03-16T07:55:30.579Z,4.60
2023-03-16T07:57:58.837Z,4.43
2023-03-16T08:00:32.680Z,4.78
2023-03-16T08:03:00.562Z,4.75
2023-03-16T08:05:30.148Z,4.60
2023-03-16T08:08:03.873Z,4.70
2023-03-16T08:10:33.803Z,4.90
2023-03-16T08:13:10.804Z,4.50
2023-03-16T08:15:42.497Z,4.63
2023-03-16T08:18:17.209Z,4.53
2023-03-16T08:20:45.659Z,4.68
2023-03-16T08:23:13.260Z,4.93
2023-03-16T08:25:42.073Z,4.47
2023-03-16T08:28:13.238Z,4.95
2023-03-16T08:30:49.479Z,4.63
2023-03-16T08:33:52.053Z,4.85
2023-03-16T08:36:23.824Z,5.28
2023-03-16T08:39:05.958Z,4.85
2023-03-16T08:41:37.909Z,4.53
2023-03-16T08:44:10.810Z,5.20
2023-03-16T08:46:38.066Z,5.22
2023-03-16T08:49:06.811Z,5.28
2023-03-16T08:51:34.296Z,5.57
2023-03-16T08:54:01.604Z,5.25
2023-03-16T08:56:30.468Z,5.13
2023-03-16T08:58:57.677Z,5.43
2023-03-16T09:01:25.758Z,5.63
2023-03-16T09:03:53.170Z,5.43
2023-03-16T09:06:22.215Z,5.35
2023-03-16T09:08:49.349Z,5.85
2023-03-16T09:11:22.236Z,5.43
2023-03-16T09:13:51.827Z,5.70
2023-03-16T09:16:21.154Z,5.57
2023-03-16T09:18:48.365Z,5.43
2023-03-16T09:21:15.626Z,5.60
2023-03-16T09:23:43.160Z,5.70
2023-03-16T09:26:12.589Z,5.82
2023-03-16T09:28:42.244Z,5.35
2023-03-16T09:31:16.759Z,6.40
2023-03-16T09:33:44.142Z,5.70
2023-03-16T09:36:12.129Z,5.68
2023-03-16T09:38:40.685Z,5.68
2023-03-16T09:41:45.970Z,5.93
2023-03-16T09:44:29.339Z,5.70
2023-03-16T09:47:01.568Z,5.93
2023-03-16T09:49:36.880Z,5.85
2023-03-16T09:52:30.383Z,6.10
2023-03-16T09:55:38.939Z,5.80
2023-03-16T09:58:17.514Z,6.07
2023-03-16T10:01:09.802Z,6.78
2023-03-16T10:03:52.435Z,6.18
2023-03-16T10:06:19.671Z,5.82
2023-03-16T10:09:04.268Z,5.68
2023-03-16T10:11:49.972Z,5.65
2023-03-16T10:14:26.493Z,5.90
2023-03-16T10:17:17.813Z,6.25
2023-03-16T10:19:51.419Z,6.25
2023-03-16T10:22:20.368Z,6.32
2023-03-16T10:25:17.505Z,5.70
2023-03-16T10:27:46.413Z,5.95
2023-03-16T10:30:36.191Z,6.10
2023-03-16T10:33:18.284Z,5.72
2023-03-16T10:35:52.493Z,5.80
2023-03-16T10:38:43.119Z,5.47
2023-03-16T10:41:22.529Z,5.63
2023-03-16T10:44:27.305Z,6.10
2023-03-16T10:47:05.546Z,5.70
2023-03-16T10:49:42.342Z,5.88
2023-03-16T10:52:34.562Z,5.78
2023-03-16T10:55:16.480Z,5.50
2023-03-16T10:57:56.641Z,6.05
2023-03-16T11:00:31.048Z,5.90
2023-03-16T11:03:00.436Z,5.63
2023-03-16T11:05:34.691Z,5.60
2023-03-16T11:08:25.627Z,5.90
2023-03-16T11:11:00.729Z,5.32
2023-03-16T11:13:38.632Z,5.22
2023-03-16T11:16:41.566Z,5.45
2023-03-16T11:19:56.341Z,5.50
2023-03-16T11:22:26.378Z,4.93
2023-03-16T11:25:15.711Z,5.05
2023-03-16T11:27:54.231Z,4.63
2023-03-16T11:31:05.127Z,5.10
2023-03-16T11:33:34.922Z,4.95
2023-03-16T11:36:10.900Z,4.75
2023-03-16T11:41:45.901Z,4.53
2023-03-16T11:44:45.019Z,4.60
2023-03-16T11:47:50.446Z,4.75
2023-03-16T11:50:40.863Z,4.82
2023-03-16T11:53:30.973Z,4.22
2023-03-16T11:56:09.171Z,4.40
2023-03-16T11:58:59.546Z,4.15
2023-03-16T12:02:00.889Z,3.83
2023-03-16T12:05:14.934Z,4.28
2023-03-16T12:07:45.106Z,3.78
2023-03-16T12:10:43.786Z,3.88
2023-03-16T12:13:42.516Z,4.20
2023-03-16T12:16:24.052Z,3.90
2023-03-16T12:18:58.050Z,3.88
2023-03-16T12:21:49.197Z,4.50
2023-03-16T12:24:27.109Z,3.97
2023-03-16T12:26:55.035Z,3.83
2023-03-16T12:29:37.623Z,3.90
2023-03-16T12:32:45.557Z,3.95
2023-03-16T12:35:54.143Z,3.65
2023-03-16T12:38:53.915Z,4.00
2023-03-16T12:42:04.165Z,3.97
2023-03-16T12:44:47.780Z,3.83
2023-03-16T12:47:52.339Z,4.10
2023-03-16T12:50:20.709Z,4.13
2023-03-16T12:52:51.828Z,4.03
2023-03-16T12:55:44.973Z,4.03
2023-03-16T12:58:12.755Z,3.72
2023-03-16T13:00:43.067Z,3.67
2023-03-16T13:03:22.242Z,3.45
2023-03-16T13:05:56.898Z,3.75
2023-03-16T13:08:24.084Z,3.50
2023-03-16T13:11:20.907Z,3.47
2023-03-16T13:14:12.770Z,3.63
2023-03-16T13:16:40.387Z,4.25
2023-03-16T13:19:27.680Z,3.60
2023-03-16T13:22:28.621Z,3.88
2023-03-16T13:25:18.071Z,3.85
2023-03-16T13:27:53.242Z,3.88
2023-03-16T13:30:31.467Z,3.80
2023-03-16T13:33:25.714Z,3.58
2023-03-16T13:35:54.746Z,3.80
2023-03-16T13:38:28.456Z,3.88
2023-03-16T13:41:04.934Z,3.70
2023-03-16T13:43:35.719Z,4.28
2023-03-16T13:46:15.930Z,3.50
2023-03-16T13:48:43.850Z,3.60
2023-03-16T13:51:17.695Z,3.45
2023-03-16T13:53:45.518Z,3.63
2023-03-16T13:56:23.927Z,3.50
2023-03-16T13:58:53.794Z,3.30
2023-03-16T14:01:32.716Z,3.65
2023-03-16T14:04:08.608Z,3.40
2023-03-16T14:06:36.785Z,3.40
2023-03-16T14:09:15.725Z,3.50
2023-03-16T14:11:44.694Z,3.67
2023-03-16T14:14:20.348Z,3.63
2023-03-16T14:16:47.677Z,3.95
2023-03-16T14:19:34.511Z,3.40
2023-03-16T14:22:06.629Z,3.60
2023-03-16T14:24:40.543Z,3.85
2023-03-16T14:27:22.453Z,3.60
2023-03-16T14:30:25.862Z,3.75
2023-03-16T14:33:25.088Z,3.88
2023-03-16T14:35:57.654Z,4.07
2023-03-16T14:38:36.208Z,4.07
2023-03-16T14:41:15.376Z,4.35
2023-03-16T14:43:54.258Z,3.70
2023-03-16T14:46:42.744Z,3.83
2023-03-16T14:49:21.067Z,3.53
2023-03-16T14:51:51.166Z,3.92
2023-03-16T14:54:22.378Z,3.70
2023-03-16T14:57:00.184Z,3.58
2023-03-16T14:59:27.961Z,3.45
2023-03-16T15:01:55.889Z,3.42
2023-03-16T15:04:34.739Z,4.05
2023-03-16T15:07:21.992Z,3.60
2023-03-16T15:09:52.374Z,3.90
2023-03-16T15:12:21.241Z,3.78
2023-03-16T15:15:07.501Z,4.00
2023-03-16T15:17:34.648Z,3.65
2023-03-16T15:20:03.444Z,3.60
2023-03-16T15:22:39.192Z,3.67
2023-03-16T15:25:24.981Z,3.83
2023-03-16T15:27:53.866Z,3.88
2023-03-16T15:30:26.814Z,3.90
2023-03-16T15:32:54.431Z,3.70
2023-03-16T15:35:21.821Z,3.70
2023-03-16T15:37:49.222Z,3.47
2023-03-16T15:40:21.940Z,3.58
2023-03-16T15:42:50.445Z,3.90
2023-03-16T15:45:21.360Z,3.40
2023-03-16T15:47:51.696Z,3.58
2023-03-16T15:50:24.688Z,3.83
2023-03-16T15:53:02.076Z,3.50
2023-03-16T15:55:42.054Z,3.70
2023-03-16T15:58:24.547Z,3.50
2023-03-16T16:00:57.336Z,3.63
2023-03-16T16:03:26.341Z,3.55
2023-03-16T16:05:54.159Z,3.42
2023-03-16T16:08:21.709Z,3.33
2023-03-16T16:10:53.204Z,3.47
2023-03-16T16:13:43.785Z,3.50
2023-03-16T16:16:19.039Z,3.67
2023-03-16T16:18:48.275Z,3.38
2023-03-16T16:21:25.847Z,3.33
2023-03-16T16:23:53.161Z,3.50
2023-03-16T16:26:54.732Z,3.30
2023-03-16T16:29:27.433Z,3.17
2023-03-16T16:31:55.428Z,3.40
2023-03-16T16:34:24.867Z,3.20
2023-03-16T16:36:54.206Z,3.47
2023-03-16T16:39:22.176Z,2.83
2023-03-16T16:41:51.983Z,3.38
2023-03-16T16:44:23.664Z,3.05
2023-03-16T16:46:52.397Z,3.22
2023-03-16T16:49:30.552Z,3.30
2023-03-16T16:51:59.236Z,3.50
2023-03-16T16:54:30.182Z,3.47
2023-03-16T16:56:58.957Z,3.88
2023-03-16T16:59:32.481Z,4.32
2023-03-16T17:02:01.995Z,3.92
2023-03-16T17:04:29.810Z,4.20
2023-03-16T17:07:01.896Z,3.80
2023-03-16T17:09:30.690Z,4.30
2023-03-16T17:12:00.989Z,4.40
2023-03-16T17:14:28.604Z,4.50
2023-03-16T17:16:57.034Z,4.60
2023-03-16T17:19:28.062Z,4.30
2023-03-16T17:21:57.645Z,4.00
2023-03-16T17:24:25.032Z,4.03
2023-03-16T17:26:56.191Z,4.03
2023-03-16T17:29:33.421Z,4.43
2023-03-16T17:32:03.436Z,4.22
2023-03-16T17:34:33.305Z,4.53
2023-03-16T17:37:01.812Z,4.25
2023-03-16T17:39:34.515Z,4.70
2023-03-16T17:42:10.925Z,5.32
2023-03-16T17:44:46.398Z,5.53
2023-03-16T17:47:26.412Z,5.07
2023-03-16T17:49:54.060Z,4.63
2023-03-16T17:52:25.320Z,4.30
2023-03-16T17:54:54.041Z,3.95
2023-03-16T17:57:34.546Z,3.50
2023-03-16T18:00:05.374Z,3.65
2023-03-16T18:02:51.607Z,3.80
2023-03-16T18:05:30.291Z,3.97
2023-03-16T18:08:13.045Z,4.82
2023-03-16T18:10:40.896Z,4.70
2023-03-16T18:13:24.794Z,4.97
2023-03-16T18:15:52.745Z,4.65
2023-03-16T18:18:23.715Z,4.35
2023-03-16T18:20:54.801Z,3.83
2023-03-16T18:23:29.197Z,3.88
2023-03-16T18:26:03.510Z,4.63
2023-03-16T18:28:32.365Z,4.38
2023-03-16T18:31:00.364Z,3.85
2023-03-16T18:33:37.878Z,3.28
2023-03-16T18:36:18.250Z,3.42
2023-03-16T18:38:48.507Z,3.75
2023-03-16T18:41:22.741Z,4.05
2023-03-16T18:43:52.040Z,4.65
2023-03-16T18:46:24.211Z,4.45
2023-03-16T18:48:54.870Z,4.35
2023-03-16T18:51:23.045Z,3.70
2023-03-16T18:53:50.816Z,4.05
2023-03-16T18:56:22.717Z,4.07
2023-03-16T18:58:51.455Z,4.20
2023-03-16T19:01:32.704Z,4.03
2023-03-16T19:04:02.181Z,3.55
2023-03-16T19:06:35.498Z,3.78
2023-03-16T19:09:14.699Z,4.10
2023-03-16T19:11:44.226Z,3.70
2023-03-16T19:14:31.529Z,4.03
2023-03-16T19:16:59.167Z,3.88
2023-03-16T19:19:27.465Z,4.00
2023-03-16T19:22:13.828Z,3.67
2023-03-16T19:24:49.164Z,4.13
2023-03-16T19:27:33.082Z,4.10
2023-03-16T19:30:00.271Z,4.03
2023-03-16T19:32:27.557Z,3.65
2023-03-16T19:34:54.877Z,3.53
2023-03-16T19:37:23.891Z,4.20
2023-03-16T19:39:51.289Z,4.15
2023-03-16T19:42:25.856Z,3.70
2023-03-16T19:44:53.253Z,3.90
2023-03-16T19:47:29.496Z,3.88
2023-03-16T19:49:58.747Z,3.80
2023-03-16T19:52:28.294Z,3.70
2023-03-16T19:54:55.870Z,3.67
2023-03-16T19:57:23.244Z,3.78
2023-03-16T19:59:56.617Z,3.70
2023-03-16T20:02:40.937Z,4.20
2023-03-16T20:05:11.361Z,4.25
2023-03-16T20:07:38.552Z,4.38
2023-03-16T20:10:07.128Z,4.28
2023-03-16T20:12:37.020Z,4.10
2023-03-16T20:15:05.138Z,3.90
2023-03-16T20:17:33.332Z,4.53
2023-03-16T20:20:00.686Z,3.90
2023-03-16T20:22:29.152Z,3.85
2023-03-16T20:24:58.060Z,4.22
2023-03-16T20:27:27.856Z,4.30
2023-03-16T20:29:55.281Z,4.00
2023-03-16T20:32:26.921Z,4.57
2023-03-16T20:34:54.189Z,4.45
2023-03-16T20:37:27.596Z,4.35
2023-03-16T20:39:57.484Z,4.03
2023-03-16T20:42:31.712Z,4.40
2023-03-16T20:44:59.864Z,4.00
2023-03-16T20:47:27.876Z,4.18
2023-03-16T20:49:57.540Z,3.45
2023-03-16T20:52:30.692Z,3.42
2023-03-16T20:54:58.773Z,3.60
2023-03-16T20:57:29.722Z,3.50
2023-03-16T20:59:57.052Z,3.33
2023-03-16T21:02:29.725Z,3.60
2023-03-16T21:05:00.364Z,3.35
2023-03-16T21:07:27.793Z,3.38
2023-03-16T21:09:55.224Z,3.75
2023-03-16T21:12:29.429Z,3.33
2023-03-16T21:14:57.205Z,3.20
2023-03-16T21:17:31.375Z,3.50
2023-03-16T21:19:59.834Z,3.72
2023-03-16T21:22:31.617Z,3.30
2023-03-16T21:24:59.061Z,3.60
2023-03-16T21:27:31.188Z,3.38
2023-03-16T21:30:07.306Z,3.45
2023-03-16T21:35:01.912Z,3.10
2023-03-16T21:37:30.391Z,3.35
2023-03-16T21:39:58.673Z,3.47
2023-03-16T21:42:27.715Z,3.67
2023-03-16T21:44:54.924Z,3.38
2023-03-16T21:47:26.494Z,3.70
2023-03-16T21:49:54.696Z,3.53
2023-03-16T21:52:28.500Z,3.58
2023-03-16T21:54:58.034Z,3.42
2023-03-16T21:57:25.637Z,3.53
2023-03-16T21:59:52.966Z,3.58
2023-03-16T22:02:25.110Z,3.40
2023-03-16T22:04:53.337Z,4.20
2023-03-16T22:07:23.132Z,3.65
2023-03-16T22:09:50.693Z,3.67
2023-03-16T22:12:18.511Z,3.63
2023-03-16T22:14:45.951Z,3.50
2023-03-16T22:17:24.339Z,3.30
2023-03-16T22:19:51.906Z,3.83
2023-03-16T22:22:19.056Z,3.50
2023-03-16T22:24:46.566Z,3.50
2023-03-16T22:27:22.418Z,3.65
2023-03-16T22:29:51.200Z,3.50
2023-03-16T22:32:21.882Z,3.80
2023-03-16T22:34:55.892Z,3.42
2023-03-16T22:37:27.949Z,3.72
2023-03-16T22:39:57.449Z,3.63
2023-03-16T22:42:38.223Z,3.40
2023-03-16T22:45:28.296Z,3.67
2023-03-16T22:47:57.722Z,3.67
2023-03-16T22:50:28.318Z,3.60
2023-03-16T22:52:59.029Z,3.38
2023-03-16T22:55:35.733Z,3.53
2023-03-16T22:58:32.401Z,3.70
2023-03-16T23:01:26.905Z,3.70
2023-03-16T23:03:54.422Z,3.58
2023-03-16T23:06:28.126Z,3.15
2023-03-16T23:08:56.186Z,3.70
2023-03-16T23:11:31.004Z,3.80
2023-03-16T23:13:59.809Z,3.60
2023-03-16T23:16:37.267Z,3.65
2023-03-16T23:19:32.899Z,3.42
2023-03-16T23:22:04.880Z,3.40
2023-03-16T23:24:34.001Z,3.80
2023-03-16T23:27:01.873Z,3.88
2023-03-16T23:29:29.346Z,3.60
2023-03-16T23:31:57.741Z,3.80
2023-03-16T23:34:26.227Z,3.42
2023-03-16T23:36:53.999Z,3.53
2023-03-16T23:39:21.230Z,3.60
2023-03-16T23:41:49.858Z,3.40
2023-03-16T23:44:21.749Z,3.97
2023-03-16T23:46:49.100Z,3.60
2023-03-16T23:49:26.700Z,3.60
2023-03-16T23:51:58.162Z,3.40
2023-03-16T23:54:30.469Z,3.60
2023-03-16T23:56:57.997Z,3.22
2023-03-16T23:59:26.645Z,3.30
